createdAt,value
2017-08-25T17:55:37.182Z,26.85
2017-08-25T17:58:04.810Z,26.85
2017-08-25T18:00:32.360Z,26.83
2017-08-25T18:03:00.031Z,26.87
2017-08-25T18:05:27.549Z,26.91
2017-08-25T18:07:55.144Z,27.01
2017-08-25T18:10:22.664Z,27.06
2017-08-25T18:12:50.260Z,27.07
2017-08-25T18:15:17.797Z,27.08
2017-08-25T18:17:45.333Z,27.12
2017-08-25T18:20:12.884Z,27.18
2017-08-25T18:22:40.387Z,27.23
2017-08-25T18:25:07.911Z,27.28
2017-08-25T18:27:35.798Z,27.30
2017-08-25T18:30:03.381Z,27.33
2017-08-25T18:32:30.931Z,27.31
2017-08-25T18:34:58.599Z,27.20
2017-08-25T18:37:26.109Z,27.04
2017-08-25T18:39:54.589Z,26.81
2017-08-25T18:42:22.191Z,26.68
2017-08-25T18:44:49.747Z,26.52
2017-08-25T18:47:17.308Z,26.38
2017-08-25T18:49:44.859Z,26.24
2017-08-25T18:52:12.434Z,26.12
2017-08-25T18:54:39.956Z,26.00
2017-08-25T18:57:07.480Z,25.89
2017-08-25T18:59:34.972Z,25.77
2017-08-25T19:02:02.514Z,25.68
2017-08-25T19:04:30.099Z,25.59
2017-08-25T19:06:57.633Z,25.48
2017-08-25T19:09:25.194Z,25.41
2017-08-25T19:11:52.726Z,25.32
2017-08-25T19:14:20.233Z,25.25
2017-08-25T19:16:48.661Z,25.18
2017-08-25T19:19:16.192Z,25.11
2017-08-25T19:21:43.729Z,25.04
2017-08-25T19:24:11.272Z,24.99
2017-08-25T19:26:38.861Z,24.93
2017-08-25T19:29:06.360Z,24.87
2017-08-25T19:31:33.846Z,24.82
2017-08-25T19:34:01.409Z,24.72
2017-08-25T19:36:28.887Z,24.64
2017-08-25T19:38:56.406Z,24.57
2017-08-25T19:41:24.010Z,24.51
2017-08-25T19:43:51.542Z,24.47
2017-08-25T19:46:19.069Z,24.42
2017-08-25T19:48:46.635Z,24.39
2017-08-25T19:51:14.148Z,24.35
2017-08-25T19:53:41.686Z,24.32
2017-08-25T19:56:09.278Z,24.28
2017-08-25T19:58:36.832Z,24.23
2017-08-25T20:01:05.079Z,24.22
2017-08-25T20:03:32.667Z,24.19
2017-08-25T20:06:00.223Z,24.17
2017-08-25T20:08:27.788Z,24.12
2017-08-25T20:10:55.313Z,24.09
